sensor_id;sensor_type;location;lat;lon;timestamp;P1;durP1;ratioP1;P2;durP2;ratioP2
4365;SDS011;2196;47.422;9.656;2022-11-18T00:01:08;0.20;;;0.20;;
4365;SDS011;2196;47.422;9.656;2022-11-18T00:03:37;1.17;;;0.20;;
4365;SDS011;2196;47.422;9.656;2022-11-18T00:06:05;0.43;;;0.20;;
4365;SDS011;2196;47.422;9.656;2022-11-18T00:08:33;0.10;;;0.10;;
4365;SDS011;2196;47.422;9.656;2022-11-18T00:11:03;0.53;;;0.20;;
4365;SDS011;2196;47.422;9.656;2022-11-18T00:13:31;0.13;;;0.13;;
4365;SDS011;2196;47.422;9.656;2022-11-18T00:16:15;0.37;;;0.37;;
4365;SDS011;2196;47.422;9.656;2022-11-18T00:18:43;1.00;;;0.33;;
4365;SDS011;2196;47.422;9.656;2022-11-18T00:21:10;2.33;;;0.10;;
4365;SDS011;2196;47.422;9.656;2022-11-18T00:23:38;2.13;;;0.20;;
4365;SDS011;2196;47.422;9.656;2022-11-18T00:26:06;0.73;;;0.27;;
4365;SDS011;2196;47.422;9.656;2022-11-18T00:28:34;0.83;;;0.20;;
4365;SDS011;2196;47.422;9.656;2022-11-18T00:31:01;1.10;;;0.27;;
4365;SDS011;2196;47.422;9.656;2022-11-18T00:33:30;0.30;;;0.30;;
4365;SDS011;2196;47.422;9.656;2022-11-18T00:35:59;0.77;;;0.13;;
4365;SDS011;2196;47.422;9.656;2022-11-18T00:38:26;0.50;;;0.30;;
4365;SDS011;2196;47.422;9.656;2022-11-18T00:40:58;0.20;;;0.20;;
4365;SDS011;2196;47.422;9.656;2022-11-18T00:43:25;0.50;;;0.17;;
4365;SDS011;2196;47.422;9.656;2022-11-18T00:45:51;0.40;;;0.40;;
4365;SDS011;2196;47.422;9.656;2022-11-18T00:48:18;0.30;;;0.30;;
4365;SDS011;2196;47.422;9.656;2022-11-18T00:50:46;0.23;;;0.20;;
4365;SDS011;2196;47.422;9.656;2022-11-18T00:53:15;0.30;;;0.30;;
4365;SDS011;2196;47.422;9.656;2022-11-18T00:55:42;0.30;;;0.20;;
4365;SDS011;2196;47.422;9.656;2022-11-18T00:58:10;0.97;;;0.40;;
4365;SDS011;2196;47.422;9.656;2022-11-18T01:00:38;0.30;;;0.10;;
4365;SDS011;2196;47.422;9.656;2022-11-18T01:03:07;0.40;;;0.20;;
4365;SDS011;2196;47.422;9.656;2022-11-18T01:05:34;0.60;;;0.20;;
4365;SDS011;2196;47.422;9.656;2022-11-18T01:08:01;0.30;;;0.20;;
4365;SDS011;2196;47.422;9.656;2022-11-18T01:12:58;1.43;;;0.30;;
4365;SDS011;2196;47.422;9.656;2022-11-18T01:15:43;1.60;;;0.50;;
4365;SDS011;2196;47.422;9.656;2022-11-18T01:18:11;1.07;;;0.30;;
4365;SDS011;2196;47.422;9.656;2022-11-18T01:20:38;0.33;;;0.33;;
4365;SDS011;2196;47.422;9.656;2022-11-18T01:23:05;0.80;;;0.30;;
4365;SDS011;2196;47.422;9.656;2022-11-18T01:25:35;0.50;;;0.40;;
4365;SDS011;2196;47.422;9.656;2022-11-18T01:28:03;0.50;;;0.50;;
4365;SDS011;2196;47.422;9.656;2022-11-18T01:30:31;0.60;;;0.60;;
4365;SDS011;2196;47.422;9.656;2022-11-18T01:32:59;0.63;;;0.60;;
4365;SDS011;2196;47.422;9.656;2022-11-18T01:35:27;1.30;;;0.60;;
4365;SDS011;2196;47.422;9.656;2022-11-18T01:37:55;3.13;;;1.23;;
4365;SDS011;2196;47.422;9.656;2022-11-18T01:40:22;0.80;;;0.80;;
4365;SDS011;2196;47.422;9.656;2022-11-18T01:42:52;2.30;;;0.70;;
4365;SDS011;2196;47.422;9.656;2022-11-18T01:45:28;3.53;;;0.50;;
4365;SDS011;2196;47.422;9.656;2022-11-18T01:48:00;2.37;;;0.67;;
4365;SDS011;2196;47.422;9.656;2022-11-18T01:50:33;1.13;;;0.50;;
4365;SDS011;2196;47.422;9.656;2022-11-18T01:53:04;0.97;;;0.87;;
4365;SDS011;2196;47.422;9.656;2022-11-18T01:55:37;0.90;;;0.90;;
4365;SDS011;2196;47.422;9.656;2022-11-18T01:58:11;0.80;;;0.70;;
4365;SDS011;2196;47.422;9.656;2022-11-18T02:00:44;1.33;;;0.70;;
4365;SDS011;2196;47.422;9.656;2022-11-18T02:03:11;1.77;;;0.73;;
4365;SDS011;2196;47.422;9.656;2022-11-18T02:05:40;0.90;;;0.90;;
4365;SDS011;2196;47.422;9.656;2022-11-18T02:08:11;0.80;;;0.80;;
4365;SDS011;2196;47.422;9.656;2022-11-18T02:10:39;1.27;;;1.00;;
4365;SDS011;2196;47.422;9.656;2022-11-18T02:13:07;1.30;;;0.97;;
4365;SDS011;2196;47.422;9.656;2022-11-18T02:15:40;2.00;;;0.80;;
4365;SDS011;2196;47.422;9.656;2022-11-18T02:18:14;1.70;;;0.87;;
4365;SDS011;2196;47.422;9.656;2022-11-18T02:20:48;1.23;;;1.23;;
4365;SDS011;2196;47.422;9.656;2022-11-18T02:26:48;1.23;;;1.23;;
4365;SDS011;2196;47.422;9.656;2022-11-18T02:29:27;3.93;;;1.57;;
4365;SDS011;2196;47.422;9.656;2022-11-18T02:31:59;1.77;;;1.73;;
4365;SDS011;2196;47.422;9.656;2022-11-18T02:34:36;0.70;;;0.70;;
4365;SDS011;2196;47.422;9.656;2022-11-18T02:37:08;0.50;;;0.50;;
4365;SDS011;2196;47.422;9.656;2022-11-18T02:39:42;0.20;;;0.20;;
4365;SDS011;2196;47.422;9.656;2022-11-18T02:42:15;0.00;;;0.00;;
4365;SDS011;2196;47.422;9.656;2022-11-18T02:44:45;0.00;;;0.00;;
4365;SDS011;2196;47.422;9.656;2022-11-18T02:47:16;1.13;;;0.10;;
4365;SDS011;2196;47.422;9.656;2022-11-18T02:49:46;0.40;;;0.00;;
4365;SDS011;2196;47.422;9.656;2022-11-18T02:52:16;0.00;;;0.00;;
4365;SDS011;2196;47.422;9.656;2022-11-18T02:54:45;0.00;;;0.00;;
4365;SDS011;2196;47.422;9.656;2022-11-18T02:57:14;0.00;;;0.00;;
4365;SDS011;2196;47.422;9.656;2022-11-18T02:59:45;0.00;;;0.00;;
4365;SDS011;2196;47.422;9.656;2022-11-18T03:02:14;0.13;;;0.00;;
4365;SDS011;2196;47.422;9.656;2022-11-18T03:04:42;0.20;;;0.20;;
4365;SDS011;2196;47.422;9.656;2022-11-18T03:07:11;0.10;;;0.00;;
4365;SDS011;2196;47.422;9.656;2022-11-18T03:09:45;0.40;;;0.00;;
4365;SDS011;2196;47.422;9.656;2022-11-18T03:12:17;0.00;;;0.00;;
4365;SDS011;2196;47.422;9.656;2022-11-18T03:14:59;0.00;;;0.00;;
4365;SDS011;2196;47.422;9.656;2022-11-18T03:17:33;1.20;;;0.00;;
4365;SDS011;2196;47.422;9.656;2022-11-18T03:20:13;0.20;;;0.00;;
4365;SDS011;2196;47.422;9.656;2022-11-18T03:22:46;0.00;;;0.00;;
4365;SDS011;2196;47.422;9.656;2022-11-18T03:25:18;0.00;;;0.00;;
4365;SDS011;2196;47.422;9.656;2022-11-18T03:27:51;0.00;;;0.00;;
4365;SDS011;2196;47.422;9.656;2022-11-18T03:30:23;0.00;;;0.00;;
4365;SDS011;2196;47.422;9.656;2022-11-18T03:32:52;0.30;;;0.00;;
4365;SDS011;2196;47.422;9.656;2022-11-18T03:35:23;0.00;;;0.00;;
4365;SDS011;2196;47.422;9.656;2022-11-18T03:37:55;0.13;;;0.00;;
4365;SDS011;2196;47.422;9.656;2022-11-18T03:40:27;0.10;;;0.00;;
4365;SDS011;2196;47.422;9.656;2022-11-18T03:42:57;0.00;;;0.00;;
4365;SDS011;2196;47.422;9.656;2022-11-18T03:45:31;0.10;;;0.07;;
4365;SDS011;2196;47.422;9.656;2022-11-18T03:48:02;0.27;;;0.17;;
4365;SDS011;2196;47.422;9.656;2022-11-18T03:50:36;0.10;;;0.10;;
4365;SDS011;2196;47.422;9.656;2022-11-18T03:53:08;0.00;;;0.00;;
4365;SDS011;2196;47.422;9.656;2022-11-18T03:55:37;0.33;;;0.00;;
4365;SDS011;2196;47.422;9.656;2022-11-18T03:58:07;0.07;;;0.00;;
4365;SDS011;2196;47.422;9.656;2022-11-18T04:00:40;0.10;;;0.10;;
4365;SDS011;2196;47.422;9.656;2022-11-18T04:03:10;0.10;;;0.10;;
4365;SDS011;2196;47.422;9.656;2022-11-18T04:05:39;0.17;;;0.10;;
4365;SDS011;2196;47.422;9.656;2022-11-18T04:08:09;1.03;;;0.13;;
4365;SDS011;2196;47.422;9.656;2022-11-18T04:10:40;0.10;;;0.10;;
4365;SDS011;2196;47.422;9.656;2022-11-18T04:13:12;0.07;;;0.07;;
4365;SDS011;2196;47.422;9.656;2022-11-18T04:15:44;0.47;;;0.10;;
4365;SDS011;2196;47.422;9.656;2022-11-18T04:18:11;0.40;;;0.00;;
4365;SDS011;2196;47.422;9.656;2022-11-18T04:20:39;0.00;;;0.00;;
4365;SDS011;2196;47.422;9.656;2022-11-18T04:23:06;0.20;;;0.20;;
4365;SDS011;2196;47.422;9.656;2022-11-18T04:25:33;0.10;;;0.10;;
4365;SDS011;2196;47.422;9.656;2022-11-18T04:28:00;0.10;;;0.10;;
4365;SDS011;2196;47.422;9.656;2022-11-18T04:30:27;0.10;;;0.10;;
4365;SDS011;2196;47.422;9.656;2022-11-18T04:32:56;2.43;;;0.13;;
4365;SDS011;2196;47.422;9.656;2022-11-18T04:35:24;0.00;;;0.00;;
4365;SDS011;2196;47.422;9.656;2022-11-18T04:37:51;0.10;;;0.10;;
4365;SDS011;2196;47.422;9.656;2022-11-18T04:40:19;1.17;;;0.10;;
4365;SDS011;2196;47.422;9.656;2022-11-18T04:42:47;0.63;;;0.00;;
4365;SDS011;2196;47.422;9.656;2022-11-18T04:45:14;0.10;;;0.10;;
4365;SDS011;2196;47.422;9.656;2022-11-18T04:47:41;0.10;;;0.10;;
4365;SDS011;2196;47.422;9.656;2022-11-18T04:50:10;0.00;;;0.00;;
4365;SDS011;2196;47.422;9.656;2022-11-18T04:52:37;0.20;;;0.10;;
4365;SDS011;2196;47.422;9.656;2022-11-18T04:55:04;0.67;;;0.10;;
4365;SDS011;2196;47.422;9.656;2022-11-18T04:57:32;0.20;;;0.10;;
4365;SDS011;2196;47.422;9.656;2022-11-18T04:59:59;0.00;;;0.00;;
4365;SDS011;2196;47.422;9.656;2022-11-18T05:02:27;0.10;;;0.10;;
4365;SDS011;2196;47.422;9.656;2022-11-18T05:04:53;0.17;;;0.17;;
4365;SDS011;2196;47.422;9.656;2022-11-18T05:07:22;0.17;;;0.10;;
4365;SDS011;2196;47.422;9.656;2022-11-18T05:09:49;0.37;;;0.37;;
4365;SDS011;2196;47.422;9.656;2022-11-18T05:12:16;0.10;;;0.10;;
4365;SDS011;2196;47.422;9.656;2022-11-18T05:15:00;0.17;;;0.10;;
4365;SDS011;2196;47.422;9.656;2022-11-18T05:17:27;0.20;;;0.10;;
4365;SDS011;2196;47.422;9.656;2022-11-18T05:19:54;0.63;;;0.23;;
4365;SDS011;2196;47.422;9.656;2022-11-18T05:22:22;0.13;;;0.13;;
4365;SDS011;2196;47.422;9.656;2022-11-18T05:24:49;0.50;;;0.20;;
4365;SDS011;2196;47.422;9.656;2022-11-18T05:27:16;0.50;;;0.50;;
4365;SDS011;2196;47.422;9.656;2022-11-18T05:29:43;0.20;;;0.20;;
4365;SDS011;2196;47.422;9.656;2022-11-18T05:32:10;0.20;;;0.20;;
4365;SDS011;2196;47.422;9.656;2022-11-18T05:34:38;0.30;;;0.30;;
4365;SDS011;2196;47.422;9.656;2022-11-18T05:37:05;1.60;;;0.40;;
4365;SDS011;2196;47.422;9.656;2022-11-18T05:39:34;0.50;;;0.40;;
4365;SDS011;2196;47.422;9.656;2022-11-18T05:42:01;0.23;;;0.23;;
4365;SDS011;2196;47.422;9.656;2022-11-18T05:44:46;1.57;;;0.60;;
4365;SDS011;2196;47.422;9.656;2022-11-18T05:47:14;2.93;;;0.50;;
4365;SDS011;2196;47.422;9.656;2022-11-18T05:49:41;0.97;;;0.73;;
4365;SDS011;2196;47.422;9.656;2022-11-18T05:52:08;0.90;;;0.27;;
4365;SDS011;2196;47.422;9.656;2022-11-18T05:54:38;2.90;;;0.60;;
4365;SDS011;2196;47.422;9.656;2022-11-18T05:57:10;1.27;;;0.50;;
4365;SDS011;2196;47.422;9.656;2022-11-18T05:59:37;0.27;;;0.20;;
4365;SDS011;2196;47.422;9.656;2022-11-18T06:02:04;0.43;;;0.20;;
4365;SDS011;2196;47.422;9.656;2022-11-18T06:04:37;0.60;;;0.20;;
4365;SDS011;2196;47.422;9.656;2022-11-18T06:07:07;0.87;;;0.30;;
4365;SDS011;2196;47.422;9.656;2022-11-18T06:09:43;0.77;;;0.10;;
4365;SDS011;2196;47.422;9.656;2022-11-18T06:12:12;0.33;;;0.10;;
4365;SDS011;2196;47.422;9.656;2022-11-18T06:14:43;0.03;;;0.03;;
4365;SDS011;2196;47.422;9.656;2022-11-18T06:17:16;0.20;;;0.10;;
4365;SDS011;2196;47.422;9.656;2022-11-18T06:19:45;0.37;;;0.10;;
4365;SDS011;2196;47.422;9.656;2022-11-18T06:22:12;0.00;;;0.00;;
4365;SDS011;2196;47.422;9.656;2022-11-18T06:24:46;0.30;;;0.10;;
4365;SDS011;2196;47.422;9.656;2022-11-18T06:27:25;0.20;;;0.10;;
4365;SDS011;2196;47.422;9.656;2022-11-18T06:29:52;0.20;;;0.10;;
4365;SDS011;2196;47.422;9.656;2022-11-18T06:32:19;2.03;;;0.10;;
4365;SDS011;2196;47.422;9.656;2022-11-18T06:34:46;0.00;;;0.00;;
4365;SDS011;2196;47.422;9.656;2022-11-18T06:37:14;0.33;;;0.33;;
4365;SDS011;2196;47.422;9.656;2022-11-18T06:39:43;0.23;;;0.23;;
4365;SDS011;2196;47.422;9.656;2022-11-18T06:42:10;0.30;;;0.00;;
4365;SDS011;2196;47.422;9.656;2022-11-18T06:44:58;0.97;;;0.50;;
4365;SDS011;2196;47.422;9.656;2022-11-18T06:47:26;1.03;;;0.10;;
4365;SDS011;2196;47.422;9.656;2022-11-18T06:49:53;0.10;;;0.10;;
4365;SDS011;2196;47.422;9.656;2022-11-18T06:52:20;1.70;;;0.20;;
4365;SDS011;2196;47.422;9.656;2022-11-18T06:54:49;0.40;;;0.20;;
4365;SDS011;2196;47.422;9.656;2022-11-18T06:57:16;1.43;;;0.70;;
4365;SDS011;2196;47.422;9.656;2022-11-18T06:59:43;1.50;;;0.30;;
4365;SDS011;2196;47.422;9.656;2022-11-18T07:02:10;0.73;;;0.50;;
4365;SDS011;2196;47.422;9.656;2022-11-18T07:04:37;1.03;;;0.50;;
4365;SDS011;2196;47.422;9.656;2022-11-18T07:07:05;0.60;;;0.60;;
4365;SDS011;2196;47.422;9.656;2022-11-18T07:09:32;1.73;;;0.70;;
4365;SDS011;2196;47.422;9.656;2022-11-18T07:12:01;1.70;;;0.60;;
4365;SDS011;2196;47.422;9.656;2022-11-18T07:14:29;5.87;;;2.90;;
4365;SDS011;2196;47.422;9.656;2022-11-18T07:16:56;19.53;;;10.63;;
4365;SDS011;2196;47.422;9.656;2022-11-18T07:19:24;23.90;;;12.73;;
4365;SDS011;2196;47.422;9.656;2022-11-18T07:21:54;9.57;;;4.90;;
4365;SDS011;2196;47.422;9.656;2022-11-18T07:24:27;1.60;;;0.80;;
4365;SDS011;2196;47.422;9.656;2022-11-18T07:26:54;0.40;;;0.20;;
4365;SDS011;2196;47.422;9.656;2022-11-18T07:29:25;0.70;;;0.10;;
4365;SDS011;2196;47.422;9.656;2022-11-18T07:31:52;1.50;;;0.03;;
4365;SDS011;2196;47.422;9.656;2022-11-18T07:34:19;2.07;;;0.00;;
4365;SDS011;2196;47.422;9.656;2022-11-18T07:36:47;0.20;;;0.00;;
4365;SDS011;2196;47.422;9.656;2022-11-18T07:39:14;3.83;;;0.20;;
4365;SDS011;2196;47.422;9.656;2022-11-18T07:41:42;0.43;;;0.10;;
4365;SDS011;2196;47.422;9.656;2022-11-18T07:44:10;0.00;;;0.00;;
4365;SDS011;2196;47.422;9.656;2022-11-18T07:46:38;0.30;;;0.10;;
4365;SDS011;2196;47.422;9.656;2022-11-18T07:49:06;1.80;;;0.10;;
4365;SDS011;2196;47.422;9.656;2022-11-18T07:51:34;0.10;;;0.10;;
4365;SDS011;2196;47.422;9.656;2022-11-18T07:54:04;0.00;;;0.00;;
4365;SDS011;2196;47.422;9.656;2022-11-18T07:56:32;0.00;;;0.00;;
4365;SDS011;2196;47.422;9.656;2022-11-18T07:59:01;0.20;;;0.20;;
4365;SDS011;2196;47.422;9.656;2022-11-18T08:01:28;0.30;;;0.30;;
4365;SDS011;2196;47.422;9.656;2022-11-18T08:03:58;0.93;;;0.50;;
4365;SDS011;2196;47.422;9.656;2022-11-18T08:06:31;0.30;;;0.20;;
4365;SDS011;2196;47.422;9.656;2022-11-18T08:08:58;0.20;;;0.20;;
4365;SDS011;2196;47.422;9.656;2022-11-18T08:11:26;0.20;;;0.20;;
4365;SDS011;2196;47.422;9.656;2022-11-18T08:13:53;0.35;;;0.35;;
4365;SDS011;2196;47.422;9.656;2022-11-18T08:16:20;0.73;;;0.40;;
4365;SDS011;2196;47.422;9.656;2022-11-18T08:18:50;0.67;;;0.27;;
4365;SDS011;2196;47.422;9.656;2022-11-18T08:21:20;2.03;;;0.30;;
4365;SDS011;2196;47.422;9.656;2022-11-18T08:23:48;2.63;;;0.50;;
4365;SDS011;2196;47.422;9.656;2022-11-18T08:26:16;3.40;;;0.70;;
4365;SDS011;2196;47.422;9.656;2022-11-18T08:28:43;1.40;;;0.40;;
4365;SDS011;2196;47.422;9.656;2022-11-18T08:31:11;0.43;;;0.40;;
4365;SDS011;2196;47.422;9.656;2022-11-18T08:33:40;0.30;;;0.30;;
4365;SDS011;2196;47.422;9.656;2022-11-18T08:36:07;0.37;;;0.37;;
4365;SDS011;2196;47.422;9.656;2022-11-18T08:38:37;0.20;;;0.20;;
4365;SDS011;2196;47.422;9.656;2022-11-18T08:41:04;0.47;;;0.47;;
4365;SDS011;2196;47.422;9.656;2022-11-18T08:43:32;0.40;;;0.30;;
4365;SDS011;2196;47.422;9.656;2022-11-18T08:46:00;0.17;;;0.10;;
4365;SDS011;2196;47.422;9.656;2022-11-18T08:48:27;0.20;;;0.20;;
4365;SDS011;2196;47.422;9.656;2022-11-18T08:50:54;0.17;;;0.17;;
4365;SDS011;2196;47.422;9.656;2022-11-18T08:53:22;0.67;;;0.50;;
4365;SDS011;2196;47.422;9.656;2022-11-18T08:55:54;0.70;;;0.70;;
4365;SDS011;2196;47.422;9.656;2022-11-18T08:58:22;2.83;;;1.77;;
4365;SDS011;2196;47.422;9.656;2022-11-18T09:00:49;2.50;;;1.70;;
4365;SDS011;2196;47.422;9.656;2022-11-18T09:03:16;1.73;;;1.57;;
4365;SDS011;2196;47.422;9.656;2022-11-18T09:05:43;4.23;;;2.40;;
4365;SDS011;2196;47.422;9.656;2022-11-18T09:08:10;3.57;;;2.53;;
4365;SDS011;2196;47.422;9.656;2022-11-18T09:10:37;2.97;;;2.33;;
4365;SDS011;2196;47.422;9.656;2022-11-18T09:13:06;5.00;;;3.40;;
4365;SDS011;2196;47.422;9.656;2022-11-18T09:15:33;2.20;;;2.00;;
4365;SDS011;2196;47.422;9.656;2022-11-18T09:18:01;1.70;;;1.50;;
4365;SDS011;2196;47.422;9.656;2022-11-18T09:20:28;2.37;;;1.07;;
4365;SDS011;2196;47.422;9.656;2022-11-18T09:22:55;2.53;;;1.00;;
4365;SDS011;2196;47.422;9.656;2022-11-18T09:25:22;3.63;;;1.00;;
4365;SDS011;2196;47.422;9.656;2022-11-18T09:27:49;3.10;;;2.37;;
4365;SDS011;2196;47.422;9.656;2022-11-18T09:30:18;3.00;;;2.20;;
4365;SDS011;2196;47.422;9.656;2022-11-18T09:32:45;2.87;;;2.77;;
4365;SDS011;2196;47.422;9.656;2022-11-18T09:35:12;3.47;;;3.20;;
4365;SDS011;2196;47.422;9.656;2022-11-18T09:37:39;4.33;;;3.87;;
4365;SDS011;2196;47.422;9.656;2022-11-18T09:40:09;4.10;;;3.80;;
4365;SDS011;2196;47.422;9.656;2022-11-18T09:42:44;2.93;;;2.73;;
4365;SDS011;2196;47.422;9.656;2022-11-18T09:45:23;3.50;;;3.30;;
4365;SDS011;2196;47.422;9.656;2022-11-18T09:47:54;2.73;;;1.97;;
4365;SDS011;2196;47.422;9.656;2022-11-18T09:50:23;4.53;;;3.00;;
4365;SDS011;2196;47.422;9.656;2022-11-18T09:52:54;2.33;;;2.17;;
4365;SDS011;2196;47.422;9.656;2022-11-18T09:55:30;1.77;;;1.30;;
4365;SDS011;2196;47.422;9.656;2022-11-18T09:57:59;0.73;;;0.30;;
4365;SDS011;2196;47.422;9.656;2022-11-18T10:00:28;0.60;;;0.20;;
4365;SDS011;2196;47.422;9.656;2022-11-18T10:02:57;0.10;;;0.10;;
4365;SDS011;2196;47.422;9.656;2022-11-18T10:05:27;0.50;;;0.50;;
4365;SDS011;2196;47.422;9.656;2022-11-18T10:07:58;1.07;;;0.50;;
4365;SDS011;2196;47.422;9.656;2022-11-18T10:10:36;0.63;;;0.40;;
4365;SDS011;2196;47.422;9.656;2022-11-18T10:13:10;0.52;;;0.40;;
4365;SDS011;2196;47.422;9.656;2022-11-18T10:15:50;0.30;;;0.30;;
4365;SDS011;2196;47.422;9.656;2022-11-18T10:18:25;0.30;;;0.30;;
4365;SDS011;2196;47.422;9.656;2022-11-18T10:20:58;0.30;;;0.30;;
4365;SDS011;2196;47.422;9.656;2022-11-18T10:23:31;0.50;;;0.50;;
4365;SDS011;2196;47.422;9.656;2022-11-18T10:26:00;1.60;;;1.03;;
4365;SDS011;2196;47.422;9.656;2022-11-18T10:28:28;3.30;;;2.07;;
4365;SDS011;2196;47.422;9.656;2022-11-18T10:31:03;0.60;;;0.60;;
4365;SDS011;2196;47.422;9.656;2022-11-18T10:33:31;17.80;;;11.47;;
4365;SDS011;2196;47.422;9.656;2022-11-18T10:36:17;3.37;;;3.03;;
4365;SDS011;2196;47.422;9.656;2022-11-18T10:39:03;1.93;;;0.90;;
4365;SDS011;2196;47.422;9.656;2022-11-18T10:41:36;0.60;;;0.60;;
4365;SDS011;2196;47.422;9.656;2022-11-18T10:44:11;2.23;;;1.10;;
4365;SDS011;2196;47.422;9.656;2022-11-18T10:47:02;0.80;;;0.80;;
4365;SDS011;2196;47.422;9.656;2022-11-18T10:49:41;0.77;;;0.77;;
4365;SDS011;2196;47.422;9.656;2022-11-18T10:52:09;2.27;;;0.70;;
4365;SDS011;2196;47.422;9.656;2022-11-18T10:54:37;0.87;;;0.83;;
4365;SDS011;2196;47.422;9.656;2022-11-18T10:57:05;1.80;;;0.83;;
4365;SDS011;2196;47.422;9.656;2022-11-18T10:59:40;2.10;;;0.80;;
4365;SDS011;2196;47.422;9.656;2022-11-18T11:02:15;1.77;;;0.57;;
4365;SDS011;2196;47.422;9.656;2022-11-18T11:04:44;1.53;;;1.43;;
4365;SDS011;2196;47.422;9.656;2022-11-18T11:07:13;1.40;;;1.30;;
4365;SDS011;2196;47.422;9.656;2022-11-18T11:09:42;2.10;;;1.90;;
4365;SDS011;2196;47.422;9.656;2022-11-18T11:12:11;1.00;;;0.90;;
4365;SDS011;2196;47.422;9.656;2022-11-18T11:14:42;1.47;;;1.23;;
4365;SDS011;2196;47.422;9.656;2022-11-18T11:17:17;1.50;;;0.80;;
4365;SDS011;2196;47.422;9.656;2022-11-18T11:19:48;0.77;;;0.77;;
4365;SDS011;2196;47.422;9.656;2022-11-18T11:22:18;0.77;;;0.60;;
4365;SDS011;2196;47.422;9.656;2022-11-18T11:24:45;2.60;;;0.50;;
4365;SDS011;2196;47.422;9.656;2022-11-18T11:27:33;0.83;;;0.40;;
4365;SDS011;2196;47.422;9.656;2022-11-18T11:30:14;0.67;;;0.50;;
4365;SDS011;2196;47.422;9.656;2022-11-18T11:35:50;0.70;;;0.70;;
4365;SDS011;2196;47.422;9.656;2022-11-18T11:38:30;1.43;;;0.70;;
4365;SDS011;2196;47.422;9.656;2022-11-18T11:41:10;1.30;;;0.67;;
4365;SDS011;2196;47.422;9.656;2022-11-18T11:43:48;0.50;;;0.50;;
4365;SDS011;2196;47.422;9.656;2022-11-18T11:46:31;0.30;;;0.30;;
4365;SDS011;2196;47.422;9.656;2022-11-18T11:49:13;0.20;;;0.20;;
4365;SDS011;2196;47.422;9.656;2022-11-18T11:51:44;0.20;;;0.20;;
4365;SDS011;2196;47.422;9.656;2022-11-18T11:54:32;0.33;;;0.30;;
4365;SDS011;2196;47.422;9.656;2022-11-18T11:57:09;0.43;;;0.30;;
4365;SDS011;2196;47.422;9.656;2022-11-18T11:59:48;0.50;;;0.50;;
4365;SDS011;2196;47.422;9.656;2022-11-18T12:02:28;0.63;;;0.20;;
4365;SDS011;2196;47.422;9.656;2022-11-18T12:05:15;0.30;;;0.13;;
4365;SDS011;2196;47.422;9.656;2022-11-18T12:07:48;0.20;;;0.10;;
4365;SDS011;2196;47.422;9.656;2022-11-18T12:10:24;1.30;;;0.67;;
4365;SDS011;2196;47.422;9.656;2022-11-18T12:13:00;0.40;;;0.40;;
4365;SDS011;2196;47.422;9.656;2022-11-18T12:15:41;0.50;;;0.50;;
4365;SDS011;2196;47.422;9.656;2022-11-18T12:18:18;0.43;;;0.43;;
4365;SDS011;2196;47.422;9.656;2022-11-18T12:20:50;1.50;;;0.10;;
4365;SDS011;2196;47.422;9.656;2022-11-18T12:23:19;0.00;;;0.00;;
4365;SDS011;2196;47.422;9.656;2022-11-18T12:25:58;0.10;;;0.10;;
4365;SDS011;2196;47.422;9.656;2022-11-18T12:28:28;0.10;;;0.10;;
4365;SDS011;2196;47.422;9.656;2022-11-18T12:33:57;0.00;;;0.00;;
4365;SDS011;2196;47.422;9.656;2022-11-18T12:36:29;0.10;;;0.10;;
4365;SDS011;2196;47.422;9.656;2022-11-18T12:38:58;0.60;;;0.20;;
4365;SDS011;2196;47.422;9.656;2022-11-18T12:42:04;0.20;;;0.20;;
4365;SDS011;2196;47.422;9.656;2022-11-18T12:44:49;0.67;;;0.40;;
4365;SDS011;2196;47.422;9.656;2022-11-18T12:47:54;2.30;;;1.00;;
4365;SDS011;2196;47.422;9.656;2022-11-18T12:50:23;0.83;;;0.40;;
4365;SDS011;2196;47.422;9.656;2022-11-18T12:53:27;1.07;;;0.80;;
4365;SDS011;2196;47.422;9.656;2022-11-18T12:56:08;0.50;;;0.50;;
4365;SDS011;2196;47.422;9.656;2022-11-18T12:58:37;0.40;;;0.40;;
4365;SDS011;2196;47.422;9.656;2022-11-18T13:01:11;0.30;;;0.30;;
4365;SDS011;2196;47.422;9.656;2022-11-18T13:03:41;0.40;;;0.40;;
4365;SDS011;2196;47.422;9.656;2022-11-18T13:06:20;1.23;;;0.43;;
4365;SDS011;2196;47.422;9.656;2022-11-18T13:08:56;1.93;;;0.40;;
4365;SDS011;2196;47.422;9.656;2022-11-18T13:11:24;0.07;;;0.07;;
4365;SDS011;2196;47.422;9.656;2022-11-18T13:17:34;1.03;;;0.20;;
4365;SDS011;2196;47.422;9.656;2022-11-18T13:20:22;0.27;;;0.20;;
4365;SDS011;2196;47.422;9.656;2022-11-18T13:22:55;0.10;;;0.10;;
4365;SDS011;2196;47.422;9.656;2022-11-18T13:25:43;0.10;;;0.10;;
4365;SDS011;2196;47.422;9.656;2022-11-18T13:28:17;1.60;;;0.10;;
4365;SDS011;2196;47.422;9.656;2022-11-18T13:30:50;0.00;;;0.00;;
4365;SDS011;2196;47.422;9.656;2022-11-18T13:33:21;0.17;;;0.17;;
4365;SDS011;2196;47.422;9.656;2022-11-18T13:35:50;0.63;;;0.63;;
4365;SDS011;2196;47.422;9.656;2022-11-18T13:38:18;0.30;;;0.30;;
4365;SDS011;2196;47.422;9.656;2022-11-18T13:40:50;0.30;;;0.30;;
4365;SDS011;2196;47.422;9.656;2022-11-18T13:43:32;0.20;;;0.20;;
4365;SDS011;2196;47.422;9.656;2022-11-18T13:45:59;0.30;;;0.30;;
4365;SDS011;2196;47.422;9.656;2022-11-18T13:48:29;0.20;;;0.20;;
4365;SDS011;2196;47.422;9.656;2022-11-18T13:50:58;0.30;;;0.30;;
4365;SDS011;2196;47.422;9.656;2022-11-18T13:53:27;0.20;;;0.20;;
4365;SDS011;2196;47.422;9.656;2022-11-18T13:55:58;0.10;;;0.10;;
4365;SDS011;2196;47.422;9.656;2022-11-18T13:58:36;0.00;;;0.00;;
4365;SDS011;2196;47.422;9.656;2022-11-18T14:01:06;1.00;;;0.13;;
4365;SDS011;2196;47.422;9.656;2022-11-18T14:03:45;0.10;;;0.10;;
4365;SDS011;2196;47.422;9.656;2022-11-18T14:06:25;0.10;;;0.10;;
4365;SDS011;2196;47.422;9.656;2022-11-18T14:09:03;1.13;;;0.13;;
4365;SDS011;2196;47.422;9.656;2022-11-18T14:11:34;0.23;;;0.20;;
4365;SDS011;2196;47.422;9.656;2022-11-18T14:14:03;0.20;;;0.20;;
4365;SDS011;2196;47.422;9.656;2022-11-18T14:16:31;0.17;;;0.17;;
4365;SDS011;2196;47.422;9.656;2022-11-18T14:19:00;0.57;;;0.23;;
4365;SDS011;2196;47.422;9.656;2022-11-18T14:21:28;0.40;;;0.40;;
4365;SDS011;2196;47.422;9.656;2022-11-18T14:23:56;1.20;;;0.30;;
4365;SDS011;2196;47.422;9.656;2022-11-18T14:26:27;0.20;;;0.20;;
4365;SDS011;2196;47.422;9.656;2022-11-18T14:28:57;0.07;;;0.07;;
4365;SDS011;2196;47.422;9.656;2022-11-18T14:31:26;0.10;;;0.10;;
4365;SDS011;2196;47.422;9.656;2022-11-18T14:36:46;0.00;;;0.00;;
4365;SDS011;2196;47.422;9.656;2022-11-18T14:39:18;0.50;;;0.10;;
4365;SDS011;2196;47.422;9.656;2022-11-18T14:41:51;0.10;;;0.10;;
4365;SDS011;2196;47.422;9.656;2022-11-18T14:44:20;0.10;;;0.00;;
4365;SDS011;2196;47.422;9.656;2022-11-18T14:46:52;0.10;;;0.10;;
4365;SDS011;2196;47.422;9.656;2022-11-18T14:49:23;0.50;;;0.20;;
4365;SDS011;2196;47.422;9.656;2022-11-18T14:51:51;0.63;;;0.10;;
4365;SDS011;2196;47.422;9.656;2022-11-18T14:54:20;0.00;;;0.00;;
4365;SDS011;2196;47.422;9.656;2022-11-18T14:56:52;0.10;;;0.10;;
4365;SDS011;2196;47.422;9.656;2022-11-18T14:59:23;0.07;;;0.07;;
4365;SDS011;2196;47.422;9.656;2022-11-18T15:01:53;0.17;;;0.17;;
4365;SDS011;2196;47.422;9.656;2022-11-18T15:04:23;0.60;;;0.10;;
4365;SDS011;2196;47.422;9.656;2022-11-18T15:06:50;1.10;;;0.20;;
4365;SDS011;2196;47.422;9.656;2022-11-18T15:09:17;0.10;;;0.10;;
4365;SDS011;2196;47.422;9.656;2022-11-18T15:11:44;0.47;;;0.00;;
4365;SDS011;2196;47.422;9.656;2022-11-18T15:14:13;0.00;;;0.00;;
4365;SDS011;2196;47.422;9.656;2022-11-18T15:16:41;0.10;;;0.10;;
4365;SDS011;2196;47.422;9.656;2022-11-18T15:19:09;0.00;;;0.00;;
4365;SDS011;2196;47.422;9.656;2022-11-18T15:21:38;0.10;;;0.03;;
4365;SDS011;2196;47.422;9.656;2022-11-18T15:24:06;0.07;;;0.07;;
4365;SDS011;2196;47.422;9.656;2022-11-18T15:26:33;0.30;;;0.30;;
4365;SDS011;2196;47.422;9.656;2022-11-18T15:29:03;0.20;;;0.10;;
4365;SDS011;2196;47.422;9.656;2022-11-18T15:31:30;0.73;;;0.20;;
4365;SDS011;2196;47.422;9.656;2022-11-18T15:33:59;0.27;;;0.10;;
4365;SDS011;2196;47.422;9.656;2022-11-18T15:36:26;0.70;;;0.10;;
4365;SDS011;2196;47.422;9.656;2022-11-18T15:38:53;0.20;;;0.20;;
4365;SDS011;2196;47.422;9.656;2022-11-18T15:41:20;0.23;;;0.17;;
4365;SDS011;2196;47.422;9.656;2022-11-18T15:43:49;0.30;;;0.30;;
4365;SDS011;2196;47.422;9.656;2022-11-18T15:46:18;0.30;;;0.30;;
4365;SDS011;2196;47.422;9.656;2022-11-18T15:48:46;1.13;;;0.50;;
4365;SDS011;2196;47.422;9.656;2022-11-18T15:51:17;0.73;;;0.33;;
4365;SDS011;2196;47.422;9.656;2022-11-18T15:53:44;0.13;;;0.13;;
4365;SDS011;2196;47.422;9.656;2022-11-18T15:56:15;0.30;;;0.20;;